Time;durP1;ratioP1;P1;durP2;ratioP2;P2;SDS_P1;SDS_P2;PMS_P1;PMS_P2;Temp;Humidity;BMP_temperature;BMP_pressure;BME280_temperature;BME280_humidity;BME280_pressure;Samples;Min_cycle;Max_cycle;Signal;HPM_P1;HPM_P2
2023/06/27 00:01:39;;;;;;;5.30;1.70;;;24.10;60.70;;;;;;5032069;28;20753;-43
2023/06/27 00:04:08;;;;;;;6.68;2.10;;;24.10;60.70;;;;;;5031630;28;20037;-42
2023/06/27 00:06:40;;;;;;;15.13;2.57;;;24.10;60.80;;;;;;5024527;28;20092;-48
2023/06/27 00:09:10;;;;;;;9.65;2.90;;;24.10;60.70;;;;;;5032119;28;20101;-47
2023/06/27 00:11:40;;;;;;;9.43;2.25;;;24.10;60.90;;;;;;5026065;28;20028;-48
2023/06/27 00:14:05;;;;;;;;;;;24.10;60.80;;;;;;5032220;28;20087;-50
2023/06/27 00:16:32;;;;;;;5.30;2.10;;;24.10;60.70;;;;;;5031173;28;19909;-42
2023/06/27 00:19:02;;;;;;;7.55;2.38;;;24.10;60.80;;;;;;5030421;28;20113;-43
2023/06/27 00:21:29;;;;;;;;;;;24.10;60.90;;;;;;5033072;28;20475;-48
2023/06/27 00:24:01;;;;;;;7.25;2.15;;;24.10;60.80;;;;;;5031644;28;20466;-42
2023/06/27 00:26:28;;;;;;;5.60;1.80;;;24.10;60.60;;;;;;5030656;28;20021;-43
2023/06/27 00:28:55;;;;;;;6.28;2.17;;;24.10;60.60;;;;;;5031833;28;20044;-43
2023/06/27 00:31:21;;;;;;;7.63;2.40;;;24.10;60.50;;;;;;5031928;28;20028;-46
2023/06/27 00:33:47;;;;;;;5.32;2.10;;;24.10;60.80;;;;;;5029768;28;20033;-42
2023/06/27 00:36:14;;;;;;;4.07;1.90;;;24.20;60.70;;;;;;5031696;28;20032;-44
2023/06/27 00:38:40;;;;;;;6.10;2.20;;;24.10;60.70;;;;;;5029245;28;20454;-44
2023/06/27 00:41:06;;;;;;;6.80;1.77;;;24.10;60.60;;;;;;5030486;28;20033;-43
2023/06/27 00:43:34;;;;;;;3.80;1.73;;;24.20;60.80;;;;;;5031485;28;20077;-44
2023/06/27 00:46:03;;;;;;;5.35;1.83;;;24.10;60.70;;;;;;5037061;28;20556;-44
2023/06/27 00:48:30;;;;;;;6.47;2.00;;;24.10;60.60;;;;;;5030689;28;20029;-44
2023/06/27 00:50:58;;;;;;;8.80;2.13;;;24.10;60.50;;;;;;5030096;28;20060;-45
2023/06/27 00:53:24;;;;;;;7.15;2.50;;;24.10;60.40;;;;;;5033137;28;20104;-44
2023/06/27 00:55:51;;;;;;;8.48;2.30;;;24.10;60.70;;;;;;5030600;28;20040;-41
2023/06/27 00:58:18;;;;;;;7.03;1.85;;;24.10;60.60;;;;;;5029475;28;20026;-44
2023/06/27 01:00:44;;;;;;;7.45;2.05;;;24.10;60.60;;;;;;5031085;28;20033;-43
2023/06/27 01:03:10;;;;;;;4.88;2.00;;;24.10;60.50;;;;;;5029824;28;20037;-41
2023/06/27 01:05:36;;;;;;;7.05;1.95;;;24.10;60.40;;;;;;5021757;28;20021;-41
2023/06/27 01:08:23;;;;;;;5.70;2.13;;;24.10;60.50;;;;;;5024052;28;20041;-46
2023/06/27 01:11:20;;;;;;;8.30;2.10;;;24.10;60.50;;;;;;5021014;28;20057;-44
2023/06/27 01:13:52;;;;;;;7.50;2.17;;;24.10;60.40;;;;;;5024174;28;20040;-42
2023/06/27 01:16:23;;;;;;;5.90;2.00;;;24.10;60.50;;;;;;5030893;28;20038;-41
2023/06/27 01:18:51;;;;;;;7.40;1.95;;;24.00;60.20;;;;;;5028615;28;20072;-42
2023/06/27 01:21:19;;;;;;;5.78;1.98;;;24.00;60.30;;;;;;5029975;28;20035;-41
2023/06/27 01:23:55;;;;;;;8.18;2.15;;;24.00;60.30;;;;;;5030514;28;20159;-41
2023/06/27 01:26:22;;;;;;;6.70;2.10;;;24.10;60.30;;;;;;5022523;28;20030;-43
2023/06/27 01:28:48;;;;;;;6.38;1.98;;;24.10;60.40;;;;;;5031477;28;20022;-41
2023/06/27 01:31:23;;;;;;;4.85;1.92;;;24.10;60.30;;;;;;5026342;28;20022;-42
2023/06/27 01:34:14;;;;;;;4.63;2.10;;;24.10;60.30;;;;;;5034691;28;20033;-42
2023/06/27 01:37:00;;;;;;;6.38;2.17;;;24.10;60.40;;;;;;5033338;28;20049;-41
2023/06/27 01:39:35;;;;;;;8.63;2.30;;;24.00;60.30;;;;;;5031701;28;20025;-42
2023/06/27 01:42:14;;;;;;;6.45;2.08;;;24.00;60.20;;;;;;5030345;28;20508;-42
2023/06/27 01:44:43;;;;;;;8.50;2.13;;;24.10;60.20;;;;;;5024700;28;20506;-41
2023/06/27 01:47:09;;;;;;;8.23;2.27;;;24.00;60.10;;;;;;5032432;28;20056;-42
2023/06/27 01:49:37;;;;;;;7.72;2.35;;;24.10;60.20;;;;;;5024423;28;20025;-45
2023/06/27 01:52:03;;;;;;;5.47;2.15;;;24.00;60.20;;;;;;5029652;28;20072;-41
2023/06/27 01:54:29;;;;;;;24.13;3.15;;;24.10;60.10;;;;;;5032025;28;20101;-41
2023/06/27 01:56:54;;;;;;;5.30;2.20;;;24.00;60.20;;;;;;5030371;28;20056;-41
2023/06/27 01:59:20;;;;;;;6.22;2.20;;;24.10;60.10;;;;;;5030014;28;20044;-41
2023/06/27 02:01:47;;;;;;;6.47;2.35;;;24.10;60.20;;;;;;5029376;28;20053;-42
2023/06/27 02:04:12;;;;;;;6.43;1.85;;;24.10;60.00;;;;;;5027522;28;20064;-42
2023/06/27 02:06:39;;;;;;;10.43;2.05;;;24.10;60.20;;;;;;5030856;28;20030;-42
2023/06/27 02:09:04;;;;;;;9.27;2.20;;;24.10;60.30;;;;;;5029905;28;20389;-41
2023/06/27 02:11:31;;;;;;;5.63;2.33;;;24.10;60.40;;;;;;5031252;28;20401;-41
2023/06/27 02:13:57;;;;;;;5.25;2.00;;;24.10;59.90;;;;;;5031129;28;20033;-41
2023/06/27 02:16:23;;;;;;;5.47;1.98;;;24.10;59.80;;;;;;5033839;28;20029;-41
2023/06/27 02:18:49;;;;;;;8.20;2.40;;;24.10;60.20;;;;;;5033151;28;20026;-41
2023/06/27 02:21:14;;;;;;;9.15;2.00;;;24.10;60.20;;;;;;5032395;28;20030;-42
2023/06/27 02:23:40;;;;;;;8.52;2.30;;;24.10;60.50;;;;;;5032613;28;20106;-42
2023/06/27 02:26:06;;;;;;;8.70;2.45;;;24.10;60.10;;;;;;5034278;28;20029;-42
2023/06/27 02:28:32;;;;;;;8.13;2.10;;;24.00;60.20;;;;;;5033206;28;20027;-41
2023/06/27 02:30:58;;;;;;;7.68;2.08;;;24.10;60.20;;;;;;5024831;28;20033;-43
2023/06/27 02:33:24;;;;;;;6.20;2.33;;;24.00;60.20;;;;;;5031982;28;20029;-41
2023/06/27 02:35:49;;;;;;;11.23;2.80;;;24.00;60.20;;;;;;5034211;28;20515;-41
2023/06/27 02:38:17;;;;;;;7.95;2.55;;;24.10;60.10;;;;;;5032823;28;20104;-41
2023/06/27 02:40:43;;;;;;;10.35;2.45;;;24.00;60.00;;;;;;5033156;28;20041;-41
2023/06/27 02:43:09;;;;;;;12.13;2.58;;;24.00;60.00;;;;;;5031910;28;20037;-41
2023/06/27 02:45:36;;;;;;;6.85;1.75;;;24.00;60.00;;;;;;5034758;28;20032;-41
2023/06/27 02:48:03;;;;;;;5.15;1.95;;;24.00;59.90;;;;;;5034399;28;20029;-41
2023/06/27 02:50:28;;;;;;;13.93;2.60;;;24.00;60.00;;;;;;5033118;28;20053;-43
2023/06/27 02:52:54;;;;;;;8.93;2.10;;;24.00;60.00;;;;;;5027842;28;20064;-42
2023/06/27 02:55:20;;;;;;;6.13;2.00;;;24.00;59.90;;;;;;5031038;28;20030;-42
2023/06/27 02:57:46;;;;;;;8.15;2.20;;;24.00;59.90;;;;;;5031888;28;20079;-41
2023/06/27 03:00:13;;;;;;;8.52;2.22;;;24.00;59.90;;;;;;5032485;28;20100;-41
2023/06/27 03:02:40;;;;;;;8.57;2.60;;;24.00;59.80;;;;;;5032644;28;20041;-42
2023/06/27 03:05:07;;;;;;;8.48;2.20;;;24.00;60.00;;;;;;5043330;28;20034;-41
2023/06/27 03:07:33;;;;;;;7.57;2.03;;;24.00;59.80;;;;;;5031560;28;20101;-41
2023/06/27 03:09:59;;;;;;;9.82;2.22;;;24.00;59.80;;;;;;5032212;28;20531;-42
2023/06/27 03:12:25;;;;;;;9.02;2.60;;;24.00;59.70;;;;;;5033080;28;20105;-42
2023/06/27 03:14:51;;;;;;;8.48;2.38;;;24.00;59.70;;;;;;5032156;28;20053;-41
2023/06/27 03:17:18;;;;;;;9.98;2.00;;;24.00;59.70;;;;;;5032132;28;20064;-43
2023/06/27 03:19:44;;;;;;;9.68;2.60;;;24.00;59.80;;;;;;5030459;28;20025;-41
2023/06/27 03:22:11;;;;;;;11.50;2.33;;;24.00;59.80;;;;;;5028031;28;20076;-41
2023/06/27 03:24:37;;;;;;;6.80;2.13;;;24.00;59.60;;;;;;5030828;28;20496;-41
2023/06/27 03:27:03;;;;;;;9.48;2.70;;;24.00;59.70;;;;;;5033041;28;20428;-41
2023/06/27 03:29:29;;;;;;;7.43;2.03;;;24.00;59.70;;;;;;5015544;28;20481;-44
2023/06/27 03:31:57;;;;;;;8.50;2.28;;;24.00;59.60;;;;;;5032785;28;20100;-41
2023/06/27 03:34:23;;;;;;;7.10;2.40;;;24.00;60.20;;;;;;5031825;28;20033;-42
2023/06/27 03:36:49;;;;;;;8.98;2.60;;;24.00;59.60;;;;;;5030742;28;20029;-41
2023/06/27 03:39:15;;;;;;;9.77;2.17;;;24.00;59.60;;;;;;5031131;28;20112;-46
2023/06/27 03:41:41;;;;;;;11.57;2.85;;;24.00;59.70;;;;;;5032421;28;20057;-41
2023/06/27 03:44:08;;;;;;;13.35;2.53;;;24.00;59.60;;;;;;5031229;28;20112;-43
2023/06/27 03:46:35;;;;;;;7.47;2.47;;;24.00;59.50;;;;;;5031576;28;20028;-41
2023/06/27 03:49:02;;;;;;;10.15;2.60;;;24.00;59.70;;;;;;5023496;28;20505;-44
2023/06/27 03:51:28;;;;;;;8.95;2.92;;;24.00;59.60;;;;;;5030821;28;20092;-41
2023/06/27 03:53:54;;;;;;;11.25;2.88;;;24.00;59.40;;;;;;5029980;28;20083;-41
2023/06/27 03:56:20;;;;;;;8.38;2.25;;;24.00;59.70;;;;;;5031955;28;20040;-42
2023/06/27 03:58:45;;;;;;;12.38;2.50;;;24.00;59.60;;;;;;5024536;28;20032;-42
2023/06/27 04:01:11;;;;;;;11.02;3.50;;;24.00;59.50;;;;;;5031229;28;20037;-42
2023/06/27 04:03:37;;;;;;;11.77;3.03;;;24.00;59.50;;;;;;5030850;28;20516;-41
2023/06/27 04:06:05;;;;;;;9.90;2.30;;;24.00;59.40;;;;;;5053775;23;20048;-57
2023/06/27 04:08:31;;;;;;;10.27;2.47;;;24.00;59.40;;;;;;5050234;28;20451;-56
2023/06/27 04:10:57;;;;;;;12.68;2.95;;;24.00;59.50;;;;;;5044853;28;20384;-57
2023/06/27 04:13:22;;;;;;;8.93;2.63;;;24.00;59.30;;;;;;5050182;28;20138;-55
2023/06/27 04:15:48;;;;;;;7.72;2.80;;;24.00;59.40;;;;;;5043334;28;20087;-52
2023/06/27 04:18:14;;;;;;;10.90;2.70;;;23.90;59.30;;;;;;5039599;28;20030;-57
2023/06/27 04:20:40;;;;;;;8.75;2.88;;;24.00;59.40;;;;;;5031384;28;20108;-56
2023/06/27 04:23:06;;;;;;;10.05;2.60;;;24.00;59.20;;;;;;5022768;28;20132;-53
2023/06/27 04:25:33;;;;;;;9.38;2.75;;;24.00;59.30;;;;;;5023186;28;20080;-55
2023/06/27 04:28:00;;;;;;;10.00;2.40;;;24.00;59.20;;;;;;5030765;28;20083;-55
2023/06/27 04:30:26;;;;;;;8.88;2.55;;;24.00;59.30;;;;;;5032618;28;20034;-50
2023/06/27 04:32:52;;;;;;;10.77;3.00;;;23.90;59.30;;;;;;5026477;28;20112;-57
2023/06/27 04:35:18;;;;;;;14.10;3.10;;;23.90;59.10;;;;;;5022872;28;20113;-54
2023/06/27 04:37:47;;;;;;;11.07;3.08;;;24.00;59.20;;;;;;5029150;28;20485;-57
2023/06/27 04:40:13;;;;;;;10.80;2.63;;;23.90;59.10;;;;;;5029627;28;20029;-57
2023/06/27 04:42:39;;;;;;;15.32;3.00;;;23.90;59.10;;;;;;5029364;28;20502;-56
2023/06/27 04:45:05;;;;;;;9.85;2.72;;;23.90;59.10;;;;;;5031200;28;20091;-57
2023/06/27 04:47:37;;;;;;;9.32;2.90;;;24.00;59.10;;;;;;5032111;28;20029;-53
2023/06/27 04:50:05;;;;;;;13.00;2.85;;;24.00;59.20;;;;;;5036454;28;20114;-55
2023/06/27 04:52:31;;;;;;;7.07;2.92;;;24.00;59.10;;;;;;5030969;28;20033;-56
2023/06/27 04:54:56;;;;;;;8.32;2.97;;;24.00;59.00;;;;;;5030328;28;20408;-56
2023/06/27 04:57:22;;;;;;;9.00;2.72;;;24.00;59.00;;;;;;5031293;28;20041;-57
2023/06/27 04:59:48;;;;;;;10.63;2.80;;;24.00;59.10;;;;;;5032046;28;20041;-55
2023/06/27 05:02:14;;;;;;;9.00;2.55;;;24.00;59.00;;;;;;5030377;28;20032;-56
2023/06/27 05:04:40;;;;;;;11.60;2.70;;;24.00;59.00;;;;;;5030867;28;20070;-55
2023/06/27 05:07:06;;;;;;;11.88;3.22;;;24.00;59.00;;;;;;5028534;28;20429;-52
2023/06/27 05:09:32;;;;;;;12.60;2.63;;;24.00;58.90;;;;;;5027892;28;20022;-54
2023/06/27 05:11:57;;;;;;;14.52;2.65;;;24.00;59.10;;;;;;5031071;28;20033;-57
2023/06/27 05:14:23;;;;;;;7.82;2.35;;;24.00;58.90;;;;;;5030833;28;20308;-57
2023/06/27 05:16:49;;;;;;;8.43;2.75;;;24.00;58.90;;;;;;5029336;28;20033;-56
2023/06/27 05:19:15;;;;;;;11.27;2.80;;;24.00;58.90;;;;;;5031974;28;20476;-56
2023/06/27 05:21:41;;;;;;;11.70;2.75;;;24.00;59.50;;;;;;5031487;28;20036;-56
2023/06/27 05:24:07;;;;;;;9.57;2.88;;;24.00;58.80;;;;;;5030313;28;20431;-56
2023/06/27 05:26:34;;;;;;;12.18;2.88;;;24.00;59.00;;;;;;5030674;28;20562;-54
2023/06/27 05:29:00;;;;;;;10.68;2.92;;;23.90;59.00;;;;;;5030853;28;20025;-55
2023/06/27 05:31:29;;;;;;;10.88;2.88;;;23.90;58.90;;;;;;5027070;28;20444;-57
2023/06/27 05:33:55;;;;;;;8.65;2.40;;;24.00;59.00;;;;;;5029609;28;20029;-57
2023/06/27 05:36:21;;;;;;;10.80;2.83;;;24.00;58.90;;;;;;5030025;28;20032;-53
2023/06/27 05:38:48;;;;;;;12.00;2.72;;;24.00;59.00;;;;;;5029712;28;20033;-55
2023/06/27 05:41:17;;;;;;;11.20;4.00;;;24.00;59.00;;;;;;5029902;28;20096;-56
2023/06/27 05:43:45;;;;;;;11.98;3.83;;;23.90;59.00;;;;;;5030361;28;20450;-52
2023/06/27 05:46:11;;;;;;;12.55;3.20;;;24.00;59.10;;;;;;5030424;28;20415;-57
2023/06/27 05:48:37;;;;;;;9.88;3.80;;;24.00;59.00;;;;;;5032552;28;20412;-57
2023/06/27 05:51:03;;;;;;;9.48;3.65;;;23.90;59.00;;;;;;5035669;28;20029;-54
2023/06/27 05:53:28;;;;;;;12.07;3.28;;;24.00;59.00;;;;;;5030303;28;20443;-55
2023/06/27 05:55:54;;;;;;;9.70;3.20;;;23.90;58.90;;;;;;5033348;28;20045;-56
2023/06/27 05:58:20;;;;;;;13.07;4.07;;;24.00;59.00;;;;;;5030977;28;20299;-57
2023/06/27 06:00:46;;;;;;;9.38;2.95;;;24.00;58.90;;;;;;5030603;28;20028;-56
2023/06/27 06:03:13;;;;;;;12.30;3.45;;;24.00;59.00;;;;;;5030545;28;20463;-57
2023/06/27 06:05:38;;;;;;;11.68;3.35;;;24.00;59.00;;;;;;5030610;28;20022;-55
2023/06/27 06:08:04;;;;;;;8.55;3.55;;;23.90;59.00;;;;;;5030478;28;20510;-57
2023/06/27 06:10:30;;;;;;;11.30;3.22;;;24.00;59.00;;;;;;5028398;28;20218;-57
2023/06/27 06:12:56;;;;;;;9.93;2.97;;;24.00;58.80;;;;;;5030019;28;20036;-57
2023/06/27 06:15:22;;;;;;;13.48;3.40;;;23.90;59.00;;;;;;5032159;28;20029;-57
2023/06/27 06:17:47;;;;;;;10.23;3.38;;;24.00;59.00;;;;;;5028297;28;20033;-56
2023/06/27 06:20:13;;;;;;;8.73;3.42;;;23.90;58.90;;;;;;5040662;28;20048;-57
2023/06/27 06:22:39;;;;;;;13.07;3.22;;;23.90;58.70;;;;;;5030403;28;20029;-57
2023/06/27 06:25:05;;;;;;;9.35;2.72;;;24.00;58.80;;;;;;5030337;28;20097;-57
2023/06/27 06:27:31;;;;;;;16.70;3.63;;;24.00;58.90;;;;;;5028769;28;20497;-55
2023/06/27 06:29:57;;;;;;;9.82;2.70;;;24.00;58.90;;;;;;5031161;28;20022;-57
2023/06/27 06:32:23;;;;;;;8.68;2.83;;;24.00;58.90;;;;;;5031831;28;20109;-57
2023/06/27 06:34:49;;;;;;;13.27;3.03;;;24.00;58.90;;;;;;5030347;28;20030;-56
2023/06/27 06:37:15;;;;;;;8.00;2.88;;;24.00;59.10;;;;;;5028186;28;20164;-56
2023/06/27 06:39:41;;;;;;;8.57;2.97;;;24.00;59.00;;;;;;5031054;28;20037;-57
2023/06/27 06:42:08;;;;;;;10.23;3.03;;;24.00;59.00;;;;;;5027104;28;20026;-57
2023/06/27 06:44:34;;;;;;;9.25;3.22;;;24.00;59.00;;;;;;5029034;28;20029;-57
2023/06/27 06:47:00;;;;;;;9.48;2.88;;;24.00;59.00;;;;;;5028951;28;20026;-57
2023/06/27 06:49:26;;;;;;;10.20;2.95;;;24.00;59.10;;;;;;5021865;28;20481;-57
2023/06/27 06:51:52;;;;;;;11.35;2.72;;;24.00;59.00;;;;;;5029558;28;20476;-56
2023/06/27 06:54:18;;;;;;;9.07;3.00;;;24.00;59.00;;;;;;5029796;28;20026;-57
2023/06/27 06:56:43;;;;;;;9.68;2.83;;;24.00;59.00;;;;;;5028719;28;20053;-57
2023/06/27 06:59:09;;;;;;;11.23;3.28;;;24.00;59.00;;;;;;5033027;28;20025;-55
2023/06/27 07:01:35;;;;;;;9.88;2.88;;;24.00;58.80;;;;;;5031690;28;20025;-55
2023/06/27 07:04:01;;;;;;;11.35;3.08;;;24.00;59.60;;;;;;5033257;28;20021;-56
2023/06/27 07:06:28;;;;;;;13.55;3.70;;;24.00;59.00;;;;;;5032701;28;20033;-56
2023/06/27 07:08:54;;;;;;;10.52;2.95;;;24.00;58.80;;;;;;5030012;28;20065;-57
2023/06/27 07:11:20;;;;;;;10.50;2.80;;;23.90;58.70;;;;;;5042626;28;20021;-56
2023/06/27 07:13:46;;;;;;;9.55;3.00;;;24.00;58.60;;;;;;5021937;28;20613;-57
2023/06/27 07:16:12;;;;;;;8.00;2.55;;;24.00;59.10;;;;;;5021706;28;20087;-57
2023/06/27 07:18:38;;;;;;;9.63;2.58;;;24.00;58.70;;;;;;5030595;28;20032;-56
2023/06/27 07:21:03;;;;;;;15.68;3.67;;;24.00;59.00;;;;;;5029208;28;20025;-53
2023/06/27 07:23:29;;;;;;;10.82;3.67;;;24.00;59.60;;;;;;5030092;28;20072;-51
2023/06/27 07:25:55;;;;;;;16.20;3.15;;;24.00;60.50;;;;;;5031017;28;20096;-53
2023/06/27 07:28:21;;;;;;;10.38;3.83;;;24.00;60.80;;;;;;5028540;28;20480;-51
2023/06/27 07:30:47;;;;;;;12.18;3.25;;;24.00;60.70;;;;;;5031414;28;20021;-54
2023/06/27 07:33:13;;;;;;;10.90;3.00;;;24.00;60.40;;;;;;5031138;28;20104;-51
2023/06/27 07:35:39;;;;;;;11.75;3.20;;;24.00;60.20;;;;;;5030453;28;20576;-55
2023/06/27 07:38:05;;;;;;;15.15;3.58;;;24.10;60.30;;;;;;5031268;28;20033;-52
2023/06/27 07:40:30;;;;;;;16.52;2.92;;;24.10;60.20;;;;;;5031405;28;20031;-53
2023/06/27 07:42:56;;;;;;;25.33;3.25;;;24.10;60.30;;;;;;5028509;28;20052;-49
2023/06/27 07:45:22;;;;;;;20.45;3.90;;;24.20;60.90;;;;;;5025108;28;20032;-53
2023/06/27 07:47:48;;;;;;;19.17;3.22;;;24.20;61.70;;;;;;5028860;28;20064;-51
2023/06/27 07:50:14;;;;;;;21.75;4.13;;;24.20;61.60;;;;;;5028531;28;20049;-55
2023/06/27 07:52:40;;;;;;;16.83;3.85;;;24.30;62.10;;;;;;5028709;28;20080;-55
2023/06/27 07:55:06;;;;;;;20.92;4.18;;;24.30;61.10;;;;;;5028998;28;20041;-57
2023/06/27 07:57:32;;;;;;;22.27;4.68;;;24.30;61.10;;;;;;5025360;28;20053;-56
2023/06/27 07:59:58;;;;;;;30.52;4.55;;;24.30;61.50;;;;;;5026253;28;20068;-54
2023/06/27 08:02:24;;;;;;;51.10;4.18;;;24.40;62.00;;;;;;5028284;28;20406;-59
2023/06/27 08:04:50;;;;;;;31.98;5.22;;;24.40;61.40;;;;;;5026615;28;20056;-52
2023/06/27 08:07:16;;;;;;;36.47;4.18;;;24.40;61.60;;;;;;5028525;28;20480;-55
2023/06/27 08:09:42;;;;;;;82.78;7.53;;;24.40;61.70;;;;;;5026872;28;20067;-57
2023/06/27 08:12:09;;;;;;;48.95;5.78;;;24.40;61.50;;;;;;5029103;28;20029;-57
2023/06/27 08:14:35;;;;;;;74.03;7.57;;;24.40;62.00;;;;;;5026060;28;20033;-57
2023/06/27 08:17:01;;;;;;;49.90;5.70;;;24.40;61.90;;;;;;5029288;28;20032;-55
2023/06/27 08:19:27;;;;;;;61.88;7.13;;;24.40;62.00;;;;;;5029497;28;20528;-55
2023/06/27 08:21:53;;;;;;;50.72;7.60;;;24.40;61.90;;;;;;5028886;28;20132;-54
2023/06/27 08:24:18;;;;;;;58.00;8.48;;;24.40;62.40;;;;;;5025985;28;20377;-53
2023/06/27 08:26:46;;;;;;;42.38;7.05;;;24.40;62.20;;;;;;5026639;28;20377;-55
2023/06/27 08:29:12;;;;;;;41.47;7.43;;;24.40;62.20;;;;;;5027389;28;20033;-55
2023/06/27 08:31:38;;;;;;;29.35;5.90;;;24.40;61.80;;;;;;5026399;28;20481;-56
2023/06/27 08:34:04;;;;;;;30.08;5.65;;;24.40;62.00;;;;;;5025653;28;20029;-53
2023/06/27 08:36:29;;;;;;;29.50;6.20;;;24.30;62.00;;;;;;5027653;28;20553;-55
2023/06/27 08:38:55;;;;;;;42.92;6.07;;;24.30;62.20;;;;;;5026559;28;20079;-54
2023/06/27 08:41:21;;;;;;;38.97;6.18;;;24.40;61.90;;;;;;5026068;28;20384;-55
2023/06/27 08:43:47;;;;;;;28.13;5.10;;;24.40;61.90;;;;;;5026724;28;20405;-52
2023/06/27 08:46:14;;;;;;;26.02;4.57;;;24.40;61.30;;;;;;5025362;28;20108;-52
2023/06/27 08:48:41;;;;;;;23.00;3.80;;;24.30;59.90;;;;;;5027526;28;20034;-54
2023/06/27 08:51:10;;;;;;;29.92;4.97;;;24.30;59.10;;;;;;5028273;28;20029;-49
2023/06/27 08:53:37;;;;;;;33.03;6.18;;;24.30;59.50;;;;;;5028665;28;20080;-51
2023/06/27 08:56:18;;;;;;;27.48;5.22;;;24.20;60.10;;;;;;5029815;28;20155;-56
2023/06/27 08:58:56;;;;;;;20.30;4.82;;;24.20;60.10;;;;;;5023016;28;20032;-52
2023/06/27 09:01:25;;;;;;;22.30;4.68;;;24.20;59.10;;;;;;5029823;28;20037;-52
2023/06/27 09:03:52;;;;;;;20.52;4.45;;;24.20;59.20;;;;;;5028013;28;20068;-52
2023/06/27 09:06:18;;;;;;;16.52;4.47;;;24.20;59.40;;;;;;5026350;28;20037;-50
2023/06/27 09:08:44;;;;;;;14.10;3.45;;;24.30;59.30;;;;;;5030040;28;20033;-49
2023/06/27 09:11:10;;;;;;;16.75;3.75;;;24.30;60.00;;;;;;5029996;28;20029;-49
2023/06/27 09:13:39;;;;;;;17.15;3.60;;;24.30;59.50;;;;;;5029381;28;20544;-50
2023/06/27 09:16:05;;;;;;;14.77;3.85;;;24.30;59.50;;;;;;5029592;28;20034;-50
2023/06/27 09:18:34;;;;;;;12.98;3.72;;;24.30;59.50;;;;;;5029820;28;20064;-50
2023/06/27 09:21:00;;;;;;;14.95;4.10;;;24.30;59.70;;;;;;5027131;28;20416;-52
2023/06/27 09:23:28;;;;;;;16.27;3.95;;;24.30;59.80;;;;;;5028356;28;20056;-50
2023/06/27 09:26:10;;;;;;;13.25;3.83;;;24.30;59.90;;;;;;5029429;28;20029;-48
2023/06/27 09:28:49;;;;;;;10.77;3.90;;;24.20;59.60;;;;;;5029634;28;20021;-50
2023/06/27 09:31:19;;;;;;;10.57;3.57;;;24.30;60.00;;;;;;5029685;28;20087;-53
2023/06/27 09:33:47;;;;;;;12.85;4.45;;;24.30;60.00;;;;;;5029703;28;20379;-52
2023/06/27 09:36:31;;;;;;;14.80;4.07;;;24.20;60.00;;;;;;5029182;28;20125;-52
2023/06/27 09:39:10;;;;;;;10.48;3.40;;;24.20;60.00;;;;;;5022663;28;20067;-51
2023/06/27 09:41:49;;;;;;;11.27;3.00;;;24.20;59.90;;;;;;5028840;28;20053;-50
2023/06/27 09:44:16;;;;;;;;;;;24.30;60.10;;;;;;5029210;28;20044;-51
2023/06/27 09:46:44;;;;;;;12.23;3.30;;;24.30;60.60;;;;;;5024372;28;20008;-54
2023/06/27 09:49:10;;;;;;;9.93;3.28;;;24.30;60.50;;;;;;5028830;28;20549;-54
2023/06/27 09:51:36;;;;;;;11.90;3.35;;;24.30;60.80;;;;;;5026749;28;20211;-53
2023/06/27 09:54:02;;;;;;;13.60;3.63;;;24.30;61.70;;;;;;5028910;28;20037;-52
2023/06/27 09:56:30;;;;;;;29.77;3.80;;;24.40;61.20;;;;;;5029023;28;20040;-53
2023/06/27 09:58:57;;;;;;;11.82;3.25;;;24.40;60.80;;;;;;5029294;28;20026;-56
2023/06/27 10:01:26;;;;;;;13.98;4.00;;;24.40;61.70;;;;;;5028531;28;20033;-53
2023/06/27 10:03:52;;;;;;;10.45;3.60;;;24.50;62.20;;;;;;5028423;28;20041;-56
2023/06/27 10:06:18;;;;;;;10.38;3.40;;;24.60;60.90;;;;;;5026515;28;20203;-52
2023/06/27 10:08:44;;;;;;;10.65;3.40;;;24.60;61.10;;;;;;5029173;28;20044;-51
2023/06/27 10:11:09;;;;;;;16.27;3.65;;;24.50;60.50;;;;;;5028576;28;20037;-56
2023/06/27 10:13:36;;;;;;;11.43;3.30;;;24.50;60.60;;;;;;5028087;28;20022;-54
2023/06/27 10:16:02;;;;;;;21.50;3.22;;;24.40;59.60;;;;;;5026726;28;20108;-53
2023/06/27 10:18:28;;;;;;;21.63;3.50;;;24.40;60.20;;;;;;5025938;28;20076;-52
2023/06/27 10:20:56;;;;;;;11.30;2.88;;;24.30;59.90;;;;;;5027047;28;20064;-54
2023/06/27 10:23:23;;;;;;;18.67;2.45;;;24.30;59.20;;;;;;5026742;28;20025;-55
2023/06/27 10:25:49;;;;;;;8.90;2.83;;;24.30;60.00;;;;;;5028737;28;20029;-55
2023/06/27 10:28:15;;;;;;;6.72;1.90;;;24.20;59.10;;;;;;5028845;28;20152;-53
2023/06/27 10:30:44;;;;;;;12.27;2.53;;;24.20;57.20;;;;;;5027143;28;20101;-55
2023/06/27 10:33:27;;;;;;;22.88;2.42;;;24.20;58.70;;;;;;5026434;28;20123;-51
2023/06/27 10:36:05;;;;;;;8.65;2.10;;;24.20;58.50;;;;;;5031367;28;20455;-53
2023/06/27 10:38:38;;;;;;;9.95;2.15;;;24.20;58.70;;;;;;5032564;28;20029;-52
2023/06/27 10:41:09;;;;;;;4.03;1.80;;;24.30;57.90;;;;;;5026415;28;20122;-52
2023/06/27 10:43:52;;;;;;;12.15;2.63;;;24.20;58.10;;;;;;5027759;28;20032;-51
2023/06/27 10:46:27;;;;;;;12.75;2.45;;;24.20;57.90;;;;;;5029576;28;20392;-50
2023/06/27 10:49:04;;;;;;;9.32;2.17;;;24.10;58.10;;;;;;5031922;28;20025;-52
2023/06/27 10:51:35;;;;;;;8.55;2.22;;;24.20;57.30;;;;;;5032086;28;20028;-55
2023/06/27 10:54:11;;;;;;;7.63;2.25;;;24.20;57.40;;;;;;5032294;28;20026;-50
2023/06/27 10:56:39;;;;;;;16.77;2.95;;;24.20;58.20;;;;;;5024277;28;20112;-56
2023/06/27 10:59:09;;;;;;;7.45;2.50;;;24.20;58.60;;;;;;5032411;28;20026;-52
2023/06/27 11:01:40;;;;;;;10.90;3.00;;;24.20;58.60;;;;;;5031652;28;20120;-55
2023/06/27 11:04:40;;;;;;;9.20;1.98;;;24.20;58.30;;;;;;5029404;28;20566;-55
2023/06/27 11:07:14;;;;;;;9.52;2.80;;;24.20;57.70;;;;;;5013769;28;20037;-52
2023/06/27 11:09:51;;;;;;;7.82;2.05;;;24.20;58.80;;;;;;5031079;28;20388;-55
2023/06/27 11:12:17;;;;;;;7.15;2.28;;;24.20;58.60;;;;;;5031752;28;20104;-55
2023/06/27 11:14:45;;;;;;;10.07;2.33;;;24.20;58.50;;;;;;5032040;28;20035;-52
2023/06/27 11:17:12;;;;;;;12.00;2.40;;;24.20;58.40;;;;;;5030214;28;20064;-54
2023/06/27 11:19:39;;;;;;;5.72;1.95;;;24.30;59.00;;;;;;5031164;28;20031;-54
2023/06/27 11:22:06;;;;;;;6.28;2.17;;;24.30;58.50;;;;;;5030395;28;20021;-55
2023/06/27 11:24:32;;;;;;;9.60;2.40;;;24.30;58.80;;;;;;5027754;28;20405;-56
2023/06/27 11:27:00;;;;;;;10.63;3.20;;;24.30;59.00;;;;;;5022584;28;20044;-57
2023/06/27 11:29:27;;;;;;;6.70;2.88;;;24.30;59.10;;;;;;5025056;28;20071;-53
2023/06/27 11:31:55;;;;;;;10.63;3.40;;;24.30;59.40;;;;;;5025147;28;20516;-56
2023/06/27 11:34:21;;;;;;;7.97;2.40;;;24.30;59.50;;;;;;5022900;28;20040;-56
2023/06/27 11:36:47;;;;;;;10.93;2.97;;;24.30;59.60;;;;;;5030902;28;20036;-54
2023/06/27 11:39:14;;;;;;;9.07;2.50;;;24.30;60.10;;;;;;5029278;28;20506;-56
2023/06/27 11:41:40;;;;;;;17.80;2.83;;;24.30;59.90;;;;;;5028854;28;20062;-56
2023/06/27 11:44:16;;;;;;;7.45;2.80;;;24.30;60.10;;;;;;5030305;28;20567;-53
2023/06/27 11:46:53;;;;;;;11.00;2.88;;;24.30;60.30;;;;;;5024014;28;20686;-53
2023/06/27 11:49:23;;;;;;;6.75;2.58;;;24.20;60.40;;;;;;5029613;28;20548;-55
2023/06/27 11:51:50;;;;;;;6.55;2.47;;;24.20;60.50;;;;;;5031153;28;20079;-54
2023/06/27 11:54:18;;;;;;;8.20;2.65;;;24.20;60.40;;;;;;5030367;28;20029;-53
2023/06/27 11:56:44;;;;;;;6.75;2.45;;;24.20;60.70;;;;;;5029489;28;20058;-52
2023/06/27 11:59:10;;;;;;;8.00;2.85;;;24.20;60.40;;;;;;5031568;28;20029;-54
2023/06/27 12:01:43;;;;;;;6.80;1.92;;;24.20;60.70;;;;;;5029789;28;20128;-54
2023/06/27 12:04:14;;;;;;;6.32;2.00;;;24.20;60.80;;;;;;5025543;28;20030;-56
2023/06/27 12:06:42;;;;;;;6.22;2.20;;;24.20;60.60;;;;;;5022718;28;20037;-50
2023/06/27 12:09:18;;;;;;;8.25;1.95;;;24.20;60.10;;;;;;5028854;28;20021;-50
2023/06/27 12:11:44;;;;;;;12.88;2.47;;;24.20;60.10;;;;;;5026108;28;20492;-55
2023/06/27 12:14:09;;;;;;;6.32;2.20;;;24.20;60.20;;;;;;5030613;28;20034;-53
2023/06/27 12:16:35;;;;;;;5.78;1.92;;;24.20;60.10;;;;;;5027214;28;20034;-56
2023/06/27 12:19:08;;;;;;;8.32;1.83;;;24.20;60.00;;;;;;5028739;28;20108;-56
2023/06/27 12:21:34;;;;;;;7.35;2.40;;;24.20;59.30;;;;;;5030261;28;20021;-53
2023/06/27 12:24:00;;;;;;;6.15;2.05;;;24.20;58.70;;;;;;5029654;28;20123;-53
2023/06/27 12:26:26;;;;;;;7.45;2.20;;;24.20;58.50;;;;;;5028596;28;20024;-52
2023/06/27 12:29:00;;;;;;;6.65;1.65;;;24.20;58.80;;;;;;5030252;28;20022;-52
2023/06/27 12:31:27;;;;;;;5.75;1.75;;;24.10;57.80;;;;;;5030208;28;20744;-54
2023/06/27 12:33:53;;;;;;;4.93;2.00;;;24.10;57.90;;;;;;5030277;28;20036;-53
2023/06/27 12:36:24;;;;;;;6.90;1.80;;;24.10;58.10;;;;;;5030076;28;20075;-50
2023/06/27 12:38:50;;;;;;;5.25;1.90;;;24.20;59.20;;;;;;5030270;28;20032;-50
2023/06/27 12:41:18;;;;;;;14.25;1.92;;;24.20;60.10;;;;;;5030068;28;20354;-56
2023/06/27 12:43:45;;;;;;;11.60;2.20;;;24.20;58.90;;;;;;5028224;28;20491;-55
2023/06/27 12:46:11;;;;;;;10.45;1.73;;;24.20;59.30;;;;;;5029866;28;20051;-53